Time;durP1;ratioP1;P1;durP2;ratioP2;P2;SDS_P1;SDS_P2;PMS_P1;PMS_P2;Temp;Humidity;BMP_temperature;BMP_pressure;BME280_temperature;BME280_humidity;BME280_pressure;Samples;Min_cycle;Max_cycle;Signal;HPM_P1;HPM_P2
2021/12/19 00:01:27;;;;;;;4.20;2.72;;;-1.40;99.90;;;;;;5033223;28;20028;-81
2021/12/19 00:09:05;;;;;;;3.17;2.20;;;-1.40;99.90;;;;;;5037578;28;20440;-80
2021/12/19 00:11:31;;;;;;;3.75;2.20;;;-1.40;99.90;;;;;;5037921;28;20021;-79
2021/12/19 00:13:57;;;;;;;3.67;2.38;;;-1.40;99.90;;;;;;5040470;28;20039;-79
2021/12/19 00:16:23;;;;;;;3.80;2.00;;;-1.40;99.90;;;;;;5041091;28;20018;-80
2021/12/19 00:18:52;;;;;;;3.17;1.70;;;-1.30;99.90;;;;;;5036527;28;20025;-82
2021/12/19 00:21:19;;;;;;;3.97;1.92;;;-1.30;99.90;;;;;;5043674;28;20052;-79
2021/12/19 00:23:47;;;;;;;2.63;1.90;;;-1.30;99.90;;;;;;5056905;28;20363;-79
2021/12/19 00:26:13;;;;;;;2.47;1.58;;;-1.30;99.90;;;;;;5057178;28;20142;-81
2021/12/19 00:28:39;;;;;;;2.88;1.80;;;-1.30;99.90;;;;;;5043818;28;20038;-80
2021/12/19 00:31:06;;;;;;;3.55;1.90;;;-1.30;99.90;;;;;;5039113;28;20028;-79
2021/12/19 00:33:32;;;;;;;1.75;1.52;;;-1.30;99.90;;;;;;5057502;28;20473;-79
2021/12/19 00:35:58;;;;;;;2.22;1.63;;;-1.30;99.90;;;;;;5055119;28;20056;-79
2021/12/19 00:38:24;;;;;;;3.08;2.15;;;-1.40;99.90;;;;;;5056140;28;20111;-78
2021/12/19 00:40:50;;;;;;;1.88;1.35;;;-1.40;99.90;;;;;;5047498;28;20045;-80
2021/12/19 00:43:36;;;;;;;1.95;1.40;;;-1.40;99.90;;;;;;5055100;28;20044;-78
2021/12/19 00:46:07;;;;;;;4.40;1.48;;;-1.40;99.90;;;;;;5053123;28;20048;-78
2021/12/19 00:48:40;;;;;;;2.33;1.67;;;-1.40;99.90;;;;;;5042979;28;20390;-78
2021/12/19 00:51:09;;;;;;;2.50;1.73;;;-1.30;99.90;;;;;;5047527;28;20026;-79
2021/12/19 00:53:35;;;;;;;1.45;1.35;;;-1.30;99.90;;;;;;5045472;28;20371;-76
2021/12/19 00:56:02;;;;;;;2.92;1.20;;;-1.30;99.90;;;;;;5051885;28;20017;-76
2021/12/19 00:58:28;;;;;;;2.00;1.47;;;-1.30;99.90;;;;;;5047488;28;20482;-78
2021/12/19 01:00:53;;;;;;;2.63;2.13;;;-1.30;99.90;;;;;;5050968;28;20261;-77
2021/12/19 01:03:21;;;;;;;2.50;1.80;;;-1.20;99.90;;;;;;5055864;28;20025;-76
2021/12/19 01:05:47;;;;;;;1.55;1.40;;;-1.20;99.90;;;;;;5056061;28;20021;-77
2021/12/19 01:08:13;;;;;;;2.20;1.50;;;-1.20;99.90;;;;;;5055393;28;20068;-76
2021/12/19 01:10:42;;;;;;;2.10;1.40;;;-1.30;99.90;;;;;;5056264;28;20025;-77
2021/12/19 01:13:08;;;;;;;1.63;1.20;;;-1.30;99.90;;;;;;5055615;28;20021;-76
2021/12/19 01:15:33;;;;;;;2.78;1.60;;;-1.30;99.90;;;;;;5054958;28;20028;-77
2021/12/19 01:18:00;;;;;;;2.83;1.48;;;-1.40;99.90;;;;;;5054678;28;20028;-78
2021/12/19 01:20:28;;;;;;;2.45;1.23;;;-1.30;99.90;;;;;;5055609;28;20017;-77
2021/12/19 01:22:54;;;;;;;3.10;1.58;;;-1.30;99.90;;;;;;5054263;28;20523;-78
2021/12/19 01:25:21;;;;;;;3.28;1.00;;;-1.30;99.90;;;;;;5054273;28;20029;-76
2021/12/19 01:27:47;;;;;;;2.85;1.55;;;-1.30;99.90;;;;;;5055590;28;20033;-77
2021/12/19 01:30:14;;;;;;;10.38;1.50;;;-1.30;99.90;;;;;;5054085;28;20021;-76
2021/12/19 01:32:41;;;;;;;1.80;1.63;;;-1.30;99.90;;;;;;5051217;28;20029;-77
2021/12/19 01:35:09;;;;;;;3.92;1.90;;;-1.30;99.90;;;;;;5054030;28;20564;-76
2021/12/19 01:37:35;;;;;;;2.10;1.67;;;-1.30;99.90;;;;;;5055870;28;20033;-76
2021/12/19 01:40:02;;;;;;;2.40;1.02;;;-1.30;99.90;;;;;;5055851;28;20017;-76
2021/12/19 01:42:32;;;;;;;1.42;1.25;;;-1.30;99.90;;;;;;5056338;28;20040;-77
2021/12/19 01:44:59;;;;;;;1.67;1.08;;;-1.30;99.90;;;;;;5055560;28;20028;-77
2021/12/19 01:47:25;;;;;;;1.65;1.55;;;-1.30;99.90;;;;;;5055430;28;20029;-78
2021/12/19 01:49:51;;;;;;;2.65;1.70;;;-1.30;99.90;;;;;;5055125;28;20040;-78
2021/12/19 01:52:18;;;;;;;1.52;1.20;;;-1.20;99.90;;;;;;5054116;28;20381;-76
2021/12/19 01:54:45;;;;;;;4.28;2.90;;;-1.20;99.90;;;;;;5054962;28;20079;-77
2021/12/19 01:57:11;;;;;;;3.65;1.40;;;-1.20;99.90;;;;;;5054538;28;20104;-78
2021/12/19 01:59:37;;;;;;;2.30;1.40;;;-1.20;99.90;;;;;;5054792;28;20569;-77
2021/12/19 02:02:03;;;;;;;2.28;1.92;;;-1.20;99.90;;;;;;5054802;28;20017;-78
2021/12/19 02:04:30;;;;;;;3.05;1.83;;;-1.20;99.90;;;;;;5054985;28;20118;-78
2021/12/19 02:06:58;;;;;;;3.42;1.83;;;-1.20;99.90;;;;;;5054919;28;20373;-78
2021/12/19 02:09:24;;;;;;;2.97;1.70;;;-1.20;99.90;;;;;;5054795;28;20039;-78
2021/12/19 02:11:51;;;;;;;4.28;1.42;;;-1.10;99.90;;;;;;5054800;28;20105;-76
2021/12/19 02:14:18;;;;;;;2.13;1.30;;;-1.10;99.90;;;;;;5054591;28;20426;-78
2021/12/19 02:16:44;;;;;;;2.25;1.55;;;-1.10;99.90;;;;;;5054798;28;20025;-77
2021/12/19 02:19:11;;;;;;;2.85;1.83;;;-1.10;99.90;;;;;;5054794;28;20024;-77
2021/12/19 02:21:38;;;;;;;2.53;2.00;;;-1.10;99.90;;;;;;5054465;28;20108;-77
2021/12/19 02:24:07;;;;;;;2.73;1.57;;;-1.10;99.90;;;;;;5054236;28;20021;-76
2021/12/19 02:26:34;;;;;;;2.63;1.73;;;-1.00;99.90;;;;;;5054435;28;20270;-77
2021/12/19 02:28:59;;;;;;;2.08;1.42;;;-1.10;99.90;;;;;;5054063;28;20037;-77
2021/12/19 02:31:28;;;;;;;2.78;1.70;;;-1.00;99.90;;;;;;5052139;28;20021;-76
2021/12/19 02:34:08;;;;;;;3.25;1.63;;;-1.00;99.90;;;;;;5050136;28;20032;-76
2021/12/19 02:49:49;;;;;;;3.55;1.55;;;-0.90;99.90;;;;;;5035084;28;20138;-76
2021/12/19 02:52:17;;;;;;;2.60;1.67;;;-0.90;99.90;;;;;;5034517;28;20017;-77
2021/12/19 02:54:43;;;;;;;2.40;1.80;;;-0.90;99.90;;;;;;5034504;28;20024;-78
2021/12/19 02:57:09;;;;;;;3.13;1.67;;;-0.80;99.90;;;;;;5034314;28;20022;-77
2021/12/19 02:59:35;;;;;;;2.85;1.67;;;-0.90;99.90;;;;;;5042148;28;20120;-80
2021/12/19 03:02:01;;;;;;;1.75;1.63;;;-0.80;99.90;;;;;;5054239;28;20021;-79
2021/12/19 03:04:27;;;;;;;2.03;1.80;;;-0.80;99.90;;;;;;5054159;28;20106;-76
2021/12/19 03:06:53;;;;;;;2.22;1.95;;;-0.80;99.90;;;;;;5053747;28;20033;-77
2021/12/19 03:20:10;;;;;;;2.63;2.00;;;-0.70;99.90;;;;;;5055747;28;20105;-78
2021/12/19 03:22:36;;;;;;;3.35;2.40;;;-0.70;99.90;;;;;;5054592;28;20535;-78
2021/12/19 03:25:02;;;;;;;2.63;1.77;;;-0.60;99.90;;;;;;5054101;28;20024;-77
2021/12/19 03:27:28;;;;;;;1.92;1.52;;;-0.60;99.90;;;;;;5053977;28;20114;-78
2021/12/19 03:29:54;;;;;;;2.95;1.60;;;-0.60;99.90;;;;;;5053714;28;20481;-79
2021/12/19 03:32:19;;;;;;;3.55;3.25;;;-0.60;99.90;;;;;;5053982;28;20029;-78
2021/12/19 03:34:45;;;;;;;3.92;2.00;;;-0.60;99.90;;;;;;5053997;28;20024;-77
2021/12/19 03:37:11;;;;;;;2.70;2.15;;;-0.60;99.90;;;;;;5053891;28;20075;-78
2021/12/19 03:39:54;;;;;;;2.95;2.20;;;-0.60;99.90;;;;;;5053846;28;20111;-81
2021/12/19 03:42:21;;;;;;;2.85;1.90;;;-0.60;99.90;;;;;;5052997;28;20072;-76
2021/12/19 03:44:46;;;;;;;2.35;1.70;;;-0.60;99.90;;;;;;5053674;28;20134;-78
2021/12/19 03:47:12;;;;;;;4.45;2.22;;;-0.60;99.90;;;;;;5053548;28;20488;-77
2021/12/19 03:49:38;;;;;;;2.10;1.80;;;-0.60;99.90;;;;;;5047193;28;20033;-76
2021/12/19 03:52:04;;;;;;;3.10;2.08;;;-0.60;99.90;;;;;;5033944;28;20026;-77
2021/12/19 03:54:29;;;;;;;4.82;2.75;;;-0.60;99.90;;;;;;5034248;28;20422;-75
2021/12/19 03:56:55;;;;;;;2.53;2.05;;;-0.50;99.90;;;;;;5033720;28;20033;-77
2021/12/19 03:59:21;;;;;;;2.88;1.90;;;-0.50;99.90;;;;;;5033601;28;20533;-77
2021/12/19 04:01:51;;;;;;;3.03;2.28;;;-0.50;99.90;;;;;;5033327;28;20489;-79
2021/12/19 04:04:16;;;;;;;5.50;2.25;;;-0.50;99.90;;;;;;5033546;28;20033;-77
2021/12/19 04:06:42;;;;;;;4.28;2.22;;;-0.50;99.90;;;;;;5033502;28;20025;-77
2021/12/19 04:09:08;;;;;;;3.05;2.20;;;-0.50;99.90;;;;;;5033144;28;20486;-77
2021/12/19 04:11:34;;;;;;;4.00;2.50;;;-0.40;99.90;;;;;;5033166;28;20053;-77
2021/12/19 04:13:59;;;;;;;3.00;1.90;;;-0.40;99.90;;;;;;5032979;28;20385;-77
2021/12/19 04:16:25;;;;;;;3.38;1.95;;;-0.40;99.90;;;;;;5033189;28;20028;-78
2021/12/19 04:18:51;;;;;;;2.97;2.10;;;-0.40;99.90;;;;;;5033261;28;20036;-76
2021/12/19 04:21:17;;;;;;;3.30;2.38;;;-0.40;99.90;;;;;;5039898;28;20013;-78
2021/12/19 04:23:42;;;;;;;3.78;2.03;;;-0.40;99.90;;;;;;5052007;28;20033;-74
2021/12/19 04:26:08;;;;;;;2.40;1.88;;;-0.40;99.90;;;;;;5052937;28;20385;-78
2021/12/19 04:28:34;;;;;;;2.83;1.90;;;-0.40;99.90;;;;;;5054605;28;20064;-78
2021/12/19 04:31:02;;;;;;;3.83;2.53;;;-0.40;99.90;;;;;;5053454;28;20021;-77
2021/12/19 04:33:29;;;;;;;3.88;2.65;;;-0.40;99.90;;;;;;5052523;28;20024;-77
2021/12/19 04:36:00;;;;;;;3.60;2.40;;;-0.40;99.90;;;;;;5052588;28;20021;-77
2021/12/19 04:58:01;;;;;;;3.30;1.88;;;-0.30;99.90;;;;;;5036475;28;20048;-78
2021/12/19 05:00:15;;;;;;;4.57;2.20;;;-0.20;99.90;;;;;;5035627;28;20045;-75
2021/12/19 05:16:04;;;;;;;5.28;3.45;;;-0.20;99.90;;;;;;5036843;28;20033;-77
2021/12/19 05:18:33;;;;;;;3.10;2.15;;;-0.10;99.90;;;;;;5038027;28;20036;-76
2021/12/19 05:21:04;;;;;;;5.13;2.42;;;-0.10;99.90;;;;;;5040587;28;20013;-76
2021/12/19 05:25:56;;;;;;;3.58;2.03;;;-0.10;99.90;;;;;;5056034;28;20106;-76
2021/12/19 05:28:22;;;;;;;3.65;2.47;;;-0.10;99.90;;;;;;5055542;28;20037;-80
2021/12/19 05:30:48;;;;;;;4.43;3.13;;;-0.10;99.90;;;;;;5055718;28;20024;-77
2021/12/19 05:33:15;;;;;;;6.25;3.00;;;-0.10;99.90;;;;;;5055619;28;20147;-74
2021/12/19 05:46:22;;;;;;;5.07;3.05;;;-0.10;99.90;;;;;;5053890;28;20028;-77
2021/12/19 05:48:47;;;;;;;5.53;2.80;;;-0.10;99.90;;;;;;5035538;28;20056;-77
2021/12/19 05:51:13;;;;;;;7.05;4.00;;;0.00;99.90;;;;;;5035425;28;20021;-77
2021/12/19 05:53:39;;;;;;;6.40;3.15;;;0.00;99.90;;;;;;5035698;28;20025;-77
2021/12/19 05:56:05;;;;;;;3.72;2.92;;;0.00;99.90;;;;;;5035447;28;20388;-76
2021/12/19 05:58:31;;;;;;;5.75;2.80;;;0.00;99.90;;;;;;5035401;28;20030;-77
2021/12/19 06:00:57;;;;;;;4.90;2.75;;;0.00;99.90;;;;;;5042424;28;20096;-80
2021/12/19 06:03:23;;;;;;;4.43;3.15;;;0.00;99.90;;;;;;5055398;28;20068;-79
2021/12/19 06:05:49;;;;;;;4.65;2.83;;;0.00;99.90;;;;;;5056611;28;20075;-79
2021/12/19 06:08:14;;;;;;;6.65;3.15;;;0.00;99.90;;;;;;5055625;28;20036;-79
2021/12/19 06:10:40;;;;;;;5.35;3.00;;;0.00;99.90;;;;;;5055378;28;20074;-78
2021/12/19 06:13:06;;;;;;;6.75;3.80;;;0.00;99.90;;;;;;5056235;28;20074;-78
2021/12/19 06:15:32;;;;;;;7.90;3.53;;;0.00;99.90;;;;;;5055413;28;20104;-79
2021/12/19 06:17:57;;;;;;;3.30;2.70;;;0.00;99.90;;;;;;5053742;28;20116;-78
2021/12/19 06:20:25;;;;;;;4.00;2.90;;;0.00;99.90;;;;;;5054891;28;20530;-79
2021/12/19 06:22:51;;;;;;;4.95;3.42;;;0.00;99.90;;;;;;5054945;28;20075;-78
2021/12/19 06:25:17;;;;;;;4.97;3.70;;;0.10;99.90;;;;;;5055315;28;20021;-77
2021/12/19 06:27:42;;;;;;;5.72;3.42;;;0.10;99.90;;;;;;5055110;28;20033;-77
2021/12/19 06:30:09;;;;;;;7.43;3.15;;;0.10;99.90;;;;;;5054272;28;20074;-78
2021/12/19 06:32:36;;;;;;;6.75;3.47;;;0.10;99.90;;;;;;5054857;28;20511;-76
2021/12/19 06:35:07;;;;;;;5.85;4.00;;;0.10;99.90;;;;;;5055463;28;20104;-77
2021/12/19 06:37:38;;;;;;;3.92;2.70;;;0.20;99.90;;;;;;5055734;28;20079;-79
2021/12/19 06:40:07;;;;;;;5.93;2.92;;;0.20;99.90;;;;;;5053346;28;20048;-78
2021/12/19 06:42:33;;;;;;;4.20;2.80;;;0.10;99.90;;;;;;5054689;28;20037;-79
2021/12/19 06:44:58;;;;;;;4.90;2.58;;;0.10;99.90;;;;;;5054425;28;20096;-79
2021/12/19 06:47:24;;;;;;;7.57;2.67;;;0.20;99.90;;;;;;5052742;28;20581;-76
2021/12/19 06:49:50;;;;;;;3.97;2.80;;;0.20;99.90;;;;;;5056026;28;20462;-76
2021/12/19 06:52:16;;;;;;;5.30;3.08;;;0.20;99.90;;;;;;5056442;28;20102;-75
2021/12/19 06:54:41;;;;;;;9.27;3.03;;;0.20;99.90;;;;;;5054881;28;20078;-77
2021/12/19 06:57:07;;;;;;;7.35;3.40;;;0.20;99.90;;;;;;5054291;28;20481;-77
2021/12/19 06:59:33;;;;;;;9.00;2.75;;;0.20;99.90;;;;;;5054323;28;20021;-77
2021/12/19 07:01:59;;;;;;;4.35;2.78;;;0.30;99.90;;;;;;5039039;28;20025;-82
2021/12/19 07:04:24;;;;;;;6.68;4.05;;;0.30;99.90;;;;;;5034062;28;20041;-78
2021/12/19 07:06:50;;;;;;;7.35;3.45;;;0.30;99.90;;;;;;5033848;28;20057;-78
2021/12/19 07:09:16;;;;;;;6.50;3.45;;;0.30;99.90;;;;;;5033763;28;20040;-78
2021/12/19 07:11:43;;;;;;;4.80;2.47;;;0.30;99.90;;;;;;5033882;28;20017;-82
2021/12/19 07:14:09;;;;;;;6.97;3.50;;;0.30;99.90;;;;;;5033683;28;20029;-79
2021/12/19 07:16:35;;;;;;;6.72;2.97;;;0.30;99.90;;;;;;5033403;28;20026;-77
2021/12/19 07:19:00;;;;;;;5.65;3.17;;;0.30;99.90;;;;;;5034292;28;20028;-78
2021/12/19 07:21:29;;;;;;;7.18;3.67;;;0.30;99.90;;;;;;5040604;28;20099;-76
2021/12/19 07:23:54;;;;;;;4.22;3.08;;;0.40;99.90;;;;;;5054173;28;20029;-78
2021/12/19 07:26:20;;;;;;;7.22;4.38;;;0.30;99.90;;;;;;5054063;28;20488;-79
2021/12/19 07:28:48;;;;;;;8.00;3.90;;;0.40;99.90;;;;;;5052342;28;20042;-76
2021/12/19 07:31:17;;;;;;;9.27;5.38;;;0.40;99.90;;;;;;5054126;28;20024;-76
2021/12/19 07:33:44;;;;;;;5.85;3.97;;;0.40;99.90;;;;;;5053709;28;20029;-77
2021/12/19 07:36:10;;;;;;;8.05;4.40;;;0.30;99.90;;;;;;5053766;28;20021;-78
2021/12/19 07:38:48;;;;;;;10.65;4.45;;;0.40;99.90;;;;;;5054255;28;20025;-77
2021/12/19 07:41:14;;;;;;;9.05;5.07;;;0.40;99.90;;;;;;5053852;28;20091;-76
2021/12/19 07:43:40;;;;;;;6.90;3.80;;;0.40;99.90;;;;;;5054307;28;20028;-77
2021/12/19 07:46:05;;;;;;;7.60;4.18;;;0.40;99.90;;;;;;5035527;28;20062;-78
2021/12/19 07:48:31;;;;;;;7.25;4.20;;;0.40;99.90;;;;;;5033867;28;20034;-78
2021/12/19 07:50:57;;;;;;;6.45;4.10;;;0.40;99.90;;;;;;5034052;28;20474;-78
2021/12/19 07:53:23;;;;;;;8.80;5.15;;;0.40;99.90;;;;;;5033752;28;20466;-77
2021/12/19 07:55:49;;;;;;;13.85;4.45;;;0.40;99.90;;;;;;5033827;28;20022;-78
2021/12/19 07:58:14;;;;;;;6.63;3.88;;;0.40;99.90;;;;;;5034105;28;20402;-74
2021/12/19 08:00:41;;;;;;;6.45;3.97;;;0.40;99.90;;;;;;5034982;28;20057;-77
2021/12/19 08:03:06;;;;;;;8.90;4.68;;;0.40;99.90;;;;;;5036394;28;20475;-79
2021/12/19 08:05:32;;;;;;;10.15;4.72;;;0.40;99.90;;;;;;5041223;28;20053;-77
2021/12/19 08:08:03;;;;;;;6.95;4.47;;;0.40;99.90;;;;;;5048255;28;20044;-77
2021/12/19 08:13:04;;;;;;;6.70;4.68;;;0.40;99.90;;;;;;5037859;28;20537;-78
2021/12/19 08:15:30;;;;;;;9.98;4.88;;;0.50;99.90;;;;;;5044035;28;20087;-80
2021/12/19 08:17:56;;;;;;;9.68;5.60;;;0.40;99.90;;;;;;5036304;28;20025;-79
2021/12/19 08:20:22;;;;;;;5.70;4.75;;;0.40;99.90;;;;;;5049949;28;20109;-80
2021/12/19 08:22:49;;;;;;;8.27;3.83;;;0.40;99.90;;;;;;5048315;28;20453;-80
2021/12/19 08:25:15;;;;;;;12.27;5.73;;;0.50;99.90;;;;;;5044002;28;20037;-80
2021/12/19 08:27:41;;;;;;;7.68;4.68;;;0.50;99.90;;;;;;5043062;28;20297;-78
2021/12/19 08:30:10;;;;;;;6.78;3.88;;;0.40;99.90;;;;;;5052668;28;20061;-80
2021/12/19 08:32:37;;;;;;;4.90;3.75;;;0.40;99.90;;;;;;5055301;28;20037;-77
2021/12/19 08:35:04;;;;;;;8.88;3.40;;;0.50;99.90;;;;;;5055515;28;20028;-79
2021/12/19 08:37:30;;;;;;;6.70;4.25;;;0.50;99.90;;;;;;5049458;28;20025;-77
2021/12/19 08:39:56;;;;;;;6.38;3.80;;;0.50;99.90;;;;;;5045623;28;20502;-78
2021/12/19 08:42:22;;;;;;;9.13;3.83;;;0.50;99.90;;;;;;5056421;28;20045;-74
2021/12/19 08:44:48;;;;;;;8.45;4.18;;;0.50;99.90;;;;;;5053268;28;20462;-79
2021/12/19 08:47:14;;;;;;;6.32;3.53;;;0.50;99.90;;;;;;5050719;28;20065;-77
2021/12/19 08:49:40;;;;;;;10.70;4.18;;;0.50;99.90;;;;;;5063516;28;20036;-80
2021/12/19 08:52:07;;;;;;;9.00;3.92;;;0.50;99.90;;;;;;5056378;28;20029;-79
2021/12/19 08:54:33;;;;;;;6.80;4.07;;;0.50;99.90;;;;;;5042238;28;20420;-79
2021/12/19 08:56:59;;;;;;;8.30;5.53;;;0.60;99.90;;;;;;5053467;28;20033;-73
2021/12/19 08:59:26;;;;;;;7.30;3.58;;;0.50;99.90;;;;;;5052190;28;20070;-75
2021/12/19 09:01:53;;;;;;;12.25;3.80;;;0.50;99.90;;;;;;5042115;28;20111;-79
2021/12/19 09:04:19;;;;;;;5.10;3.28;;;0.50;99.90;;;;;;5057200;28;20021;-81
2021/12/19 09:06:45;;;;;;;8.25;3.55;;;0.60;99.90;;;;;;5056431;28;20489;-75
2021/12/19 09:09:12;;;;;;;8.68;6.15;;;0.60;99.90;;;;;;5055448;28;20029;-77
2021/12/19 09:11:37;;;;;;;5.13;3.10;;;0.60;99.90;;;;;;5054780;28;20021;-77
2021/12/19 09:14:03;;;;;;;8.18;3.20;;;0.60;99.90;;;;;;5056300;28;20031;-80
2021/12/19 09:16:30;;;;;;;5.90;3.20;;;0.60;99.90;;;;;;5056188;28;20021;-78
2021/12/19 09:18:55;;;;;;;6.97;3.42;;;0.60;99.90;;;;;;5054729;28;20477;-81
2021/12/19 09:21:21;;;;;;;8.38;3.40;;;0.60;99.90;;;;;;5055368;28;20023;-80
2021/12/19 09:23:47;;;;;;;7.03;3.30;;;0.60;99.90;;;;;;5056374;28;20036;-77
2021/12/19 09:26:13;;;;;;;9.32;3.33;;;0.60;99.90;;;;;;5056399;28;20043;-77
2021/12/19 09:28:39;;;;;;;6.63;3.20;;;0.60;99.90;;;;;;5055451;28;20041;-78
2021/12/19 09:31:05;;;;;;;6.55;3.28;;;0.60;99.90;;;;;;5055870;28;20031;-76
2021/12/19 09:33:31;;;;;;;5.28;3.22;;;0.60;99.90;;;;;;5056041;28;20017;-77
2021/12/19 09:35:57;;;;;;;4.82;3.17;;;0.60;99.90;;;;;;5054487;28;20040;-79
2021/12/19 09:38:24;;;;;;;5.85;3.47;;;0.60;99.90;;;;;;5045723;28;20051;-78
2021/12/19 09:40:53;;;;;;;5.47;2.63;;;0.60;99.90;;;;;;5052372;28;20505;-81
2021/12/19 09:44:02;;;;;;;5.07;2.67;;;0.60;99.90;;;;;;5045375;28;20037;-83
2021/12/19 09:46:14;;;;;;;5.40;3.00;;;0.70;99.90;;;;;;5046690;28;20044;-81
2021/12/19 09:48:41;;;;;;;5.65;3.95;;;0.60;99.90;;;;;;5055363;28;20040;-81
2021/12/19 09:51:09;;;;;;;8.25;3.38;;;0.60;99.90;;;;;;5056421;28;20021;-83
2021/12/19 09:53:35;;;;;;;4.82;2.75;;;0.70;99.90;;;;;;5056994;28;20021;-82
2021/12/19 09:56:01;;;;;;;5.28;3.60;;;0.70;99.90;;;;;;5050373;28;20028;-79
2021/12/19 09:58:29;;;;;;;6.85;3.80;;;0.70;99.90;;;;;;5043787;28;20029;-84
2021/12/19 10:00:55;;;;;;;6.10;3.50;;;0.60;99.90;;;;;;5038897;28;20471;-81
2021/12/19 10:03:21;;;;;;;5.45;3.22;;;0.70;99.90;;;;;;5048220;28;20032;-82
2021/12/19 10:05:47;;;;;;;5.72;3.05;;;0.70;99.90;;;;;;5048959;28;20032;-81
2021/12/19 10:08:23;;;;;;;8.70;3.60;;;0.70;99.90;;;;;;5035388;28;20038;-82
2021/12/19 10:10:59;;;;;;;5.13;3.33;;;0.70;99.90;;;;;;5036750;28;20138;-84
2021/12/19 10:13:32;;;;;;;11.32;3.40;;;0.70;99.90;;;;;;5035867;28;20022;-84
2021/12/19 10:15:58;;;;;;;3.08;2.58;;;0.70;99.90;;;;;;5037037;28;20104;-80
2021/12/19 10:18:24;;;;;;;4.30;2.90;;;0.60;99.90;;;;;;5036248;28;20446;-84
2021/12/19 10:20:56;;;;;;;6.88;4.07;;;0.60;99.90;;;;;;5037382;28;20112;-80
2021/12/19 10:23:35;;;;;;;7.93;4.72;;;0.60;99.90;;;;;;5042163;28;20078;-84
2021/12/19 10:26:09;;;;;;;7.50;4.40;;;0.60;99.90;;;;;;5037652;28;20540;-82
2021/12/19 10:28:48;;;;;;;5.07;3.03;;;0.60;99.90;;;;;;5036863;28;20041;-83
2021/12/19 10:31:14;;;;;;;5.22;3.35;;;0.60;99.90;;;;;;5036103;28;20056;-82
2021/12/19 10:33:40;;;;;;;5.03;3.05;;;0.60;99.90;;;;;;5035761;28;20471;-84
2021/12/19 10:36:07;;;;;;;5.10;2.65;;;0.70;99.90;;;;;;5035775;28;20048;-82
2021/12/19 10:38:36;;;;;;;6.25;2.50;;;0.70;99.90;;;;;;5035229;28;20071;-83
2021/12/19 10:41:12;;;;;;;5.25;3.00;;;0.60;99.90;;;;;;5035020;28;20032;-82
2021/12/19 10:43:58;;;;;;;8.23;2.80;;;0.60;99.90;;;;;;5034561;28;20033;-79
2021/12/19 10:46:39;;;;;;;4.95;2.97;;;0.60;99.90;;;;;;5035208;28;20033;-83
2021/12/19 10:49:30;;;;;;;6.20;2.88;;;0.60;99.90;;;;;;5034853;28;20417;-82
2021/12/19 10:52:04;;;;;;;5.45;2.42;;;0.60;99.90;;;;;;5034473;28;20017;-85
2021/12/19 10:54:30;;;;;;;4.43;2.72;;;0.60;99.90;;;;;;5034038;28;20035;-83
2021/12/19 10:57:13;;;;;;;9.35;3.47;;;0.60;99.90;;;;;;5033902;28;20063;-84
2021/12/19 10:59:43;;;;;;;4.18;3.10;;;0.60;99.90;;;;;;5034964;28;20576;-82
2021/12/19 11:02:09;;;;;;;8.10;3.22;;;0.60;99.90;;;;;;5037605;28;20025;-80
2021/12/19 11:04:35;;;;;;;6.88;3.40;;;0.60;99.90;;;;;;5054733;28;20172;-79
2021/12/19 11:07:02;;;;;;;6.55;3.33;;;0.60;99.90;;;;;;5054485;28;20056;-80
2021/12/19 11:09:31;;;;;;;7.88;3.50;;;0.60;99.90;;;;;;5055004;28;20033;-81
2021/12/19 11:12:01;;;;;;;7.95;3.67;;;0.60;99.90;;;;;;5054381;28;20377;-83
2021/12/19 11:14:33;;;;;;;5.60;3.35;;;0.60;99.90;;;;;;5056287;28;20116;-81
2021/12/19 11:17:07;;;;;;;5.85;3.17;;;0.60;99.90;;;;;;5055861;28;20027;-83
2021/12/19 11:19:33;;;;;;;7.65;4.28;;;0.60;99.90;;;;;;5038023;28;20052;-83
2021/12/19 11:21:59;;;;;;;5.97;4.13;;;0.60;99.90;;;;;;5036446;28;20026;-82
2021/12/19 11:24:26;;;;;;;5.65;3.40;;;0.60;99.90;;;;;;5035472;28;20037;-83
2021/12/19 11:26:55;;;;;;;8.02;3.83;;;0.60;99.90;;;;;;5034875;28;20045;-82
2021/12/19 11:29:23;;;;;;;7.45;3.30;;;0.60;99.90;;;;;;5037664;28;20033;-81
2021/12/19 11:31:57;;;;;;;7.82;3.83;;;0.60;99.90;;;;;;5039025;28;20624;-82
2021/12/19 11:34:30;;;;;;;13.82;3.72;;;0.60;99.90;;;;;;5037509;28;20033;-81
2021/12/19 11:37:17;;;;;;;6.75;3.03;;;0.60;99.90;;;;;;5054111;28;20024;-79
2021/12/19 11:39:50;;;;;;;3.25;2.72;;;0.60;99.90;;;;;;5044803;28;20024;-77
2021/12/19 11:42:36;;;;;;;7.75;3.67;;;0.60;99.90;;;;;;5054438;28;20045;-79
2021/12/19 11:47:52;;;;;;;4.32;2.88;;;0.60;99.90;;;;;;5054228;28;20033;-78
2021/12/19 11:50:28;;;;;;;17.58;2.80;;;0.60;99.90;;;;;;5054162;28;20398;-80
2021/12/19 11:52:57;;;;;;;4.70;3.35;;;0.60;99.90;;;;;;5053876;28;20384;-79
2021/12/19 11:55:33;;;;;;;9.35;3.60;;;0.60;99.90;;;;;;5054476;28;20096;-82
2021/12/19 11:58:08;;;;;;;6.65;3.75;;;0.60;99.90;;;;;;5062215;28;20024;-84
2021/12/19 12:00:47;;;;;;;5.22;2.58;;;0.60;99.90;;;;;;5057817;28;20488;-87
2021/12/19 12:03:12;;;;;;;6.03;2.45;;;0.60;99.90;;;;;;5041030;28;20029;-83
2021/12/19 12:05:39;;;;;;;5.18;2.78;;;0.60;99.90;;;;;;5035678;28;20026;-89
2021/12/19 12:08:05;;;;;;;8.32;3.65;;;0.60;99.90;;;;;;5035218;28;20074;-86
2021/12/19 12:10:53;;;;;;;3.70;2.78;;;0.60;99.90;;;;;;5035405;28;20045;-88
2021/12/19 12:13:33;;;;;;;4.45;3.15;;;0.60;99.90;;;;;;5035082;28;20037;-85
2021/12/19 12:16:29;;;;;;;4.50;2.33;;;0.60;99.90;;;;;;5033913;28;20029;-86
2021/12/19 12:19:01;;;;;;;5.57;3.05;;;0.50;99.90;;;;;;5035354;28;20018;-84
2021/12/19 12:21:32;;;;;;;5.97;3.35;;;0.60;99.90;;;;;;5034364;28;20117;-84
2021/12/19 12:24:04;;;;;;;7.30;3.42;;;0.60;99.90;;;;;;5035230;28;20017;-82
2021/12/19 12:26:45;;;;;;;5.40;2.72;;;0.60;99.90;;;;;;5032978;28;20036;-83
2021/12/19 12:29:15;;;;;;;4.97;2.50;;;0.60;99.90;;;;;;5043400;28;20040;-87
2021/12/19 12:31:46;;;;;;;4.47;3.13;;;0.60;99.90;;;;;;5056872;28;20078;-84
2021/12/19 12:34:15;;;;;;;4.35;3.10;;;0.60;99.90;;;;;;5044191;28;20065;-84
2021/12/19 12:36:41;;;;;;;7.45;2.22;;;0.60;99.90;;;;;;5041700;28;20021;-84
2021/12/19 12:39:24;;;;;;;6.63;2.40;;;0.60;99.90;;;;;;5036855;28;20029;-82
2021/12/19 12:42:00;;;;;;;4.65;2.20;;;0.60;99.90;;;;;;5035173;28;20069;-84
2021/12/19 12:44:27;;;;;;;6.93;2.60;;;0.60;99.90;;;;;;5037841;28;20053;-82
2021/12/19 12:46:53;;;;;;;5.47;2.50;;;0.60;99.90;;;;;;5046724;28;20087;-84
2021/12/19 12:49:34;;;;;;;6.35;2.75;;;0.60;99.90;;;;;;5056778;28;20033;-87
2021/12/19 12:52:06;;;;;;;6.65;2.58;;;0.60;99.90;;;;;;5059273;28;20021;-86
2021/12/19 12:54:36;;;;;;;13.02;2.70;;;0.60;99.90;;;;;;5034307;28;20051;-83
2021/12/19 12:57:05;;;;;;;3.90;2.10;;;0.60;99.90;;;;;;5035407;28;20040;-86
2021/12/19 12:59:33;;;;;;;3.38;2.75;;;0.60;99.90;;;;;;5034986;28;20025;-83
2021/12/19 13:02:15;;;;;;;3.40;2.40;;;0.60;99.90;;;;;;5035137;28;20501;-84
2021/12/19 13:04:49;;;;;;;7.20;3.25;;;0.60;99.90;;;;;;5034361;28;20532;-83
2021/12/19 13:07:17;;;;;;;8.43;3.83;;;0.60;99.90;;;;;;5033980;28;20075;-84
2021/12/19 13:09:49;;;;;;;;;;;0.60;99.90;;;;;;5034659;28;20033;-83
2021/12/19 13:12:24;;;;;;;8.20;3.75;;;0.60;99.90;;;;;;5033855;28;20358;-83
2021/12/19 13:14:54;;;;;;;8.98;3.00;;;0.60;99.90;;;;;;5036191;28;20033;-84
2021/12/19 13:17:30;;;;;;;8.95;3.03;;;0.60;99.90;;;;;;5036763;28;20090;-86
2021/12/19 13:19:57;;;;;;;6.32;4.07;;;0.60;99.90;;;;;;5037968;28;20105;-80
2021/12/19 13:22:31;;;;;;;4.53;2.88;;;0.60;99.90;;;;;;5036289;28;20108;-84
2021/12/19 13:25:05;;;;;;;3.15;2.10;;;0.60;99.90;;;;;;5036083;28;20030;-84
2021/12/19 13:27:36;;;;;;;5.72;2.90;;;0.60;99.90;;;;;;5037500;28;20017;-84
2021/12/19 13:30:17;;;;;;;5.15;2.92;;;0.50;99.90;;;;;;5047622;28;20056;-83
2021/12/19 13:33:07;;;;;;;8.02;3.25;;;0.60;99.90;;;;;;5058271;28;20021;-84
2021/12/19 13:35:40;;;;;;;10.82;4.50;;;0.50;99.90;;;;;;5058450;28;20355;-84
2021/12/19 13:38:14;;;;;;;14.65;8.75;;;0.60;99.90;;;;;;5054524;28;20019;-84
2021/12/19 13:40:41;;;;;;;10.88;5.90;;;0.60;99.90;;;;;;5044627;28;20028;-82
2021/12/19 13:43:13;;;;;;;7.78;4.28;;;0.60;99.90;;;;;;5041321;28;20037;-80
2021/12/19 13:45:55;;;;;;;6.18;3.97;;;0.60;99.90;;;;;;5046990;28;20095;-85
2021/12/19 13:48:38;;;;;;;7.53;3.72;;;0.60;99.90;;;;;;5045419;28;20040;-84
2021/12/19 13:51:12;;;;;;;4.57;3.78;;;0.60;99.90;;;;;;5048410;28;20022;-85
2021/12/19 13:53:49;;;;;;;5.32;2.75;;;0.60;99.90;;;;;;5039705;28;20470;-84
2021/12/19 13:56:18;;;;;;;6.78;3.30;;;0.60;99.90;;;;;;5055007;28;20029;-82
2021/12/19 13:58:50;;;;;;;6.45;3.85;;;0.60;99.90;;;;;;5048756;28;20048;-86
2021/12/19 14:01:18;;;;;;;7.88;3.42;;;0.60;99.90;;;;;;5046884;28;20044;-87
2021/12/19 14:04:05;;;;;;;7.22;3.80;;;0.60;99.90;;;;;;5029218;28;20052;-86
2021/12/19 14:06:36;;;;;;;6.50;3.75;;;0.60;99.90;;;;;;5044002;28;20031;-85
2021/12/19 14:09:10;;;;;;;8.93;3.60;;;0.60;99.90;;;;;;5060581;28;20056;-85
2021/12/19 14:11:39;;;;;;;6.10;2.95;;;0.60;99.90;;;;;;5071155;28;20029;-85
2021/12/19 14:14:12;;;;;;;7.15;3.72;;;0.60;99.90;;;;;;5062111;28;20043;-86
2021/12/19 14:16:43;;;;;;;6.53;3.28;;;0.60;99.90;;;;;;5068744;28;20124;-83
2021/12/19 14:19:23;;;;;;;6.47;4.00;;;0.70;99.90;;;;;;5078684;28;20040;-87
2021/12/19 14:21:54;;;;;;;7.32;2.80;;;0.60;99.90;;;;;;5057492;28;20119;-81